sensor_id;sensor_type;location;lat;lon;timestamp;P1;durP1;ratioP1;P2;durP2;ratioP2
45694;SDS011;31408;45.468;9.124;2023-07-28T00:00:46;6.20;;;3.08;;
45694;SDS011;31408;45.468;9.124;2023-07-28T00:03:12;5.68;;;3.13;;
45694;SDS011;31408;45.468;9.124;2023-07-28T00:05:37;8.07;;;3.05;;
45694;SDS011;31408;45.468;9.124;2023-07-28T00:08:03;6.85;;;3.38;;
45694;SDS011;31408;45.468;9.124;2023-07-28T00:10:28;5.90;;;2.85;;
45694;SDS011;31408;45.468;9.124;2023-07-28T00:12:54;11.13;;;2.83;;
45694;SDS011;31408;45.468;9.124;2023-07-28T00:15:19;9.90;;;3.33;;
45694;SDS011;31408;45.468;9.124;2023-07-28T00:17:44;5.68;;;2.85;;
45694;SDS011;31408;45.468;9.124;2023-07-28T00:20:10;8.15;;;2.47;;
45694;SDS011;31408;45.468;9.124;2023-07-28T00:22:36;6.70;;;3.38;;
45694;SDS011;31408;45.468;9.124;2023-07-28T00:25:02;7.45;;;3.05;;
45694;SDS011;31408;45.468;9.124;2023-07-28T00:27:27;5.68;;;2.60;;
45694;SDS011;31408;45.468;9.124;2023-07-28T00:29:53;9.88;;;3.67;;
45694;SDS011;31408;45.468;9.124;2023-07-28T00:32:18;5.32;;;2.22;;
45694;SDS011;31408;45.468;9.124;2023-07-28T00:34:44;6.57;;;2.80;;
45694;SDS011;31408;45.468;9.124;2023-07-28T00:37:10;13.20;;;3.28;;
45694;SDS011;31408;45.468;9.124;2023-07-28T00:39:35;5.28;;;2.58;;
45694;SDS011;31408;45.468;9.124;2023-07-28T00:42:01;5.22;;;2.92;;
45694;SDS011;31408;45.468;9.124;2023-07-28T00:44:26;8.77;;;2.63;;
45694;SDS011;31408;45.468;9.124;2023-07-28T00:46:52;7.53;;;2.72;;
45694;SDS011;31408;45.468;9.124;2023-07-28T00:49:17;5.32;;;3.05;;
45694;SDS011;31408;45.468;9.124;2023-07-28T00:51:43;5.55;;;2.53;;
45694;SDS011;31408;45.468;9.124;2023-07-28T00:54:08;7.85;;;3.00;;
45694;SDS011;31408;45.468;9.124;2023-07-28T00:56:34;5.35;;;2.55;;
45694;SDS011;31408;45.468;9.124;2023-07-28T00:59:00;6.15;;;2.40;;
45694;SDS011;31408;45.468;9.124;2023-07-28T01:01:25;4.20;;;2.45;;
45694;SDS011;31408;45.468;9.124;2023-07-28T01:03:52;5.75;;;2.58;;
45694;SDS011;31408;45.468;9.124;2023-07-28T01:09:21;13.93;;;2.22;;
45694;SDS011;31408;45.468;9.124;2023-07-28T01:11:56;4.45;;;2.17;;
45694;SDS011;31408;45.468;9.124;2023-07-28T01:14:23;5.72;;;2.20;;
45694;SDS011;31408;45.468;9.124;2023-07-28T01:16:49;5.47;;;2.47;;
45694;SDS011;31408;45.468;9.124;2023-07-28T01:19:18;6.22;;;2.55;;
45694;SDS011;31408;45.468;9.124;2023-07-28T01:21:45;6.80;;;3.10;;
45694;SDS011;31408;45.468;9.124;2023-07-28T01:24:49;4.45;;;2.50;;
45694;SDS011;31408;45.468;9.124;2023-07-28T01:27:25;6.45;;;3.03;;
45694;SDS011;31408;45.468;9.124;2023-07-28T01:29:50;8.27;;;3.20;;
45694;SDS011;31408;45.468;9.124;2023-07-28T01:32:16;6.82;;;2.47;;
45694;SDS011;31408;45.468;9.124;2023-07-28T01:34:42;5.95;;;2.80;;
45694;SDS011;31408;45.468;9.124;2023-07-28T01:37:07;5.60;;;2.72;;
45694;SDS011;31408;45.468;9.124;2023-07-28T01:39:33;5.72;;;2.33;;
45694;SDS011;31408;45.468;9.124;2023-07-28T01:41:58;5.03;;;2.25;;
45694;SDS011;31408;45.468;9.124;2023-07-28T01:44:24;3.60;;;2.22;;
45694;SDS011;31408;45.468;9.124;2023-07-28T01:46:49;5.18;;;2.38;;
45694;SDS011;31408;45.468;9.124;2023-07-28T01:49:15;5.78;;;2.28;;
45694;SDS011;31408;45.468;9.124;2023-07-28T01:51:40;6.25;;;2.80;;
45694;SDS011;31408;45.468;9.124;2023-07-28T01:54:06;7.63;;;3.22;;
45694;SDS011;31408;45.468;9.124;2023-07-28T01:56:31;5.85;;;3.00;;
45694;SDS011;31408;45.468;9.124;2023-07-28T01:58:57;7.30;;;2.88;;
45694;SDS011;31408;45.468;9.124;2023-07-28T02:01:23;10.57;;;3.28;;
45694;SDS011;31408;45.468;9.124;2023-07-28T02:03:48;7.68;;;3.17;;
45694;SDS011;31408;45.468;9.124;2023-07-28T02:06:14;6.53;;;2.80;;
45694;SDS011;31408;45.468;9.124;2023-07-28T02:08:39;7.13;;;2.95;;
45694;SDS011;31408;45.468;9.124;2023-07-28T02:11:05;11.07;;;2.92;;
45694;SDS011;31408;45.468;9.124;2023-07-28T02:13:30;8.50;;;2.80;;
45694;SDS011;31408;45.468;9.124;2023-07-28T02:15:55;4.88;;;3.08;;
45694;SDS011;31408;45.468;9.124;2023-07-28T02:18:21;11.90;;;2.97;;
45694;SDS011;31408;45.468;9.124;2023-07-28T02:20:49;10.73;;;2.47;;
45694;SDS011;31408;45.468;9.124;2023-07-28T02:23:15;7.30;;;2.72;;
45694;SDS011;31408;45.468;9.124;2023-07-28T02:25:40;4.05;;;2.33;;
45694;SDS011;31408;45.468;9.124;2023-07-28T02:28:07;7.55;;;2.60;;
45694;SDS011;31408;45.468;9.124;2023-07-28T02:30:34;11.73;;;2.72;;
45694;SDS011;31408;45.468;9.124;2023-07-28T02:33:00;6.53;;;2.30;;
45694;SDS011;31408;45.468;9.124;2023-07-28T02:35:25;21.92;;;3.25;;
45694;SDS011;31408;45.468;9.124;2023-07-28T02:37:51;5.30;;;3.30;;
45694;SDS011;31408;45.468;9.124;2023-07-28T02:40:16;4.45;;;2.70;;
45694;SDS011;31408;45.468;9.124;2023-07-28T02:45:26;7.10;;;3.55;;
45694;SDS011;31408;45.468;9.124;2023-07-28T02:47:52;5.47;;;3.03;;
45694;SDS011;31408;45.468;9.124;2023-07-28T02:50:17;8.27;;;2.85;;
45694;SDS011;31408;45.468;9.124;2023-07-28T02:52:43;5.70;;;2.85;;
45694;SDS011;31408;45.468;9.124;2023-07-28T02:55:12;6.60;;;3.45;;
45694;SDS011;31408;45.468;9.124;2023-07-28T02:57:37;5.40;;;2.70;;
45694;SDS011;31408;45.468;9.124;2023-07-28T03:00:03;3.70;;;2.45;;
45694;SDS011;31408;45.468;9.124;2023-07-28T03:02:31;8.20;;;2.72;;
45694;SDS011;31408;45.468;9.124;2023-07-28T03:04:57;4.75;;;2.72;;
45694;SDS011;31408;45.468;9.124;2023-07-28T03:07:22;8.70;;;3.17;;
45694;SDS011;31408;45.468;9.124;2023-07-28T03:09:54;8.00;;;2.88;;
45694;SDS011;31408;45.468;9.124;2023-07-28T03:12:20;5.88;;;2.90;;
45694;SDS011;31408;45.468;9.124;2023-07-28T03:14:46;8.68;;;2.83;;
45694;SDS011;31408;45.468;9.124;2023-07-28T03:17:11;6.45;;;3.17;;
45694;SDS011;31408;45.468;9.124;2023-07-28T03:19:36;7.43;;;3.10;;
45694;SDS011;31408;45.468;9.124;2023-07-28T03:22:02;5.40;;;2.58;;
45694;SDS011;31408;45.468;9.124;2023-07-28T03:24:28;7.15;;;2.78;;
45694;SDS011;31408;45.468;9.124;2023-07-28T03:26:53;7.13;;;2.38;;
45694;SDS011;31408;45.468;9.124;2023-07-28T03:29:18;10.18;;;2.42;;
45694;SDS011;31408;45.468;9.124;2023-07-28T03:31:44;8.68;;;2.88;;
45694;SDS011;31408;45.468;9.124;2023-07-28T03:34:10;7.88;;;2.35;;
45694;SDS011;31408;45.468;9.124;2023-07-28T03:36:35;5.70;;;3.17;;
45694;SDS011;31408;45.468;9.124;2023-07-28T03:39:01;6.90;;;2.80;;
45694;SDS011;31408;45.468;9.124;2023-07-28T03:41:27;6.65;;;2.70;;
45694;SDS011;31408;45.468;9.124;2023-07-28T03:43:52;6.78;;;2.35;;
45694;SDS011;31408;45.468;9.124;2023-07-28T03:46:18;5.28;;;2.70;;
45694;SDS011;31408;45.468;9.124;2023-07-28T03:48:43;9.25;;;2.88;;
45694;SDS011;31408;45.468;9.124;2023-07-28T03:51:09;10.77;;;3.40;;
45694;SDS011;31408;45.468;9.124;2023-07-28T03:53:34;4.18;;;2.30;;
45694;SDS011;31408;45.468;9.124;2023-07-28T03:56:00;11.57;;;2.70;;
45694;SDS011;31408;45.468;9.124;2023-07-28T03:58:27;4.68;;;2.45;;
45694;SDS011;31408;45.468;9.124;2023-07-28T04:00:52;4.45;;;2.45;;
45694;SDS011;31408;45.468;9.124;2023-07-28T04:03:18;5.07;;;2.30;;
45694;SDS011;31408;45.468;9.124;2023-07-28T04:05:44;8.57;;;2.67;;
45694;SDS011;31408;45.468;9.124;2023-07-28T04:08:10;7.72;;;3.35;;
45694;SDS011;31408;45.468;9.124;2023-07-28T04:10:35;4.72;;;2.67;;
45694;SDS011;31408;45.468;9.124;2023-07-28T04:13:00;8.88;;;3.05;;
45694;SDS011;31408;45.468;9.124;2023-07-28T04:15:26;6.57;;;2.42;;
45694;SDS011;31408;45.468;9.124;2023-07-28T04:17:51;7.75;;;2.97;;
45694;SDS011;31408;45.468;9.124;2023-07-28T04:20:17;6.18;;;2.95;;
45694;SDS011;31408;45.468;9.124;2023-07-28T04:22:43;4.10;;;2.40;;
45694;SDS011;31408;45.468;9.124;2023-07-28T04:25:09;6.85;;;3.88;;
45694;SDS011;31408;45.468;9.124;2023-07-28T04:27:36;5.82;;;2.95;;
45694;SDS011;31408;45.468;9.124;2023-07-28T04:30:03;4.97;;;2.67;;
45694;SDS011;31408;45.468;9.124;2023-07-28T04:32:29;6.68;;;3.05;;
45694;SDS011;31408;45.468;9.124;2023-07-28T04:35:00;6.18;;;2.88;;
45694;SDS011;31408;45.468;9.124;2023-07-28T04:37:51;7.72;;;2.63;;
45694;SDS011;31408;45.468;9.124;2023-07-28T04:40:33;5.97;;;2.25;;
45694;SDS011;31408;45.468;9.124;2023-07-28T04:42:59;8.30;;;2.95;;
45694;SDS011;31408;45.468;9.124;2023-07-28T04:45:24;6.75;;;2.92;;
45694;SDS011;31408;45.468;9.124;2023-07-28T04:47:50;11.15;;;2.75;;
45694;SDS011;31408;45.468;9.124;2023-07-28T04:50:16;7.18;;;2.60;;
45694;SDS011;31408;45.468;9.124;2023-07-28T04:53:14;8.88;;;2.97;;
45694;SDS011;31408;45.468;9.124;2023-07-28T04:55:55;9.38;;;3.75;;
45694;SDS011;31408;45.468;9.124;2023-07-28T04:58:25;4.10;;;2.10;;
45694;SDS011;31408;45.468;9.124;2023-07-28T05:00:52;4.85;;;2.47;;
45694;SDS011;31408;45.468;9.124;2023-07-28T05:03:18;7.03;;;3.42;;
45694;SDS011;31408;45.468;9.124;2023-07-28T05:05:54;8.75;;;2.55;;
45694;SDS011;31408;45.468;9.124;2023-07-28T05:08:19;5.30;;;2.30;;
45694;SDS011;31408;45.468;9.124;2023-07-28T05:10:45;5.90;;;2.78;;
45694;SDS011;31408;45.468;9.124;2023-07-28T05:13:11;8.25;;;3.08;;
45694;SDS011;31408;45.468;9.124;2023-07-28T05:15:41;4.93;;;2.63;;
45694;SDS011;31408;45.468;9.124;2023-07-28T05:18:12;6.88;;;2.97;;
45694;SDS011;31408;45.468;9.124;2023-07-28T05:23:13;7.53;;;2.50;;
45694;SDS011;31408;45.468;9.124;2023-07-28T05:25:38;7.80;;;3.15;;
45694;SDS011;31408;45.468;9.124;2023-07-28T05:28:04;4.28;;;2.33;;
45694;SDS011;31408;45.468;9.124;2023-07-28T05:30:32;6.35;;;2.65;;
45694;SDS011;31408;45.468;9.124;2023-07-28T05:32:57;8.18;;;3.25;;
45694;SDS011;31408;45.468;9.124;2023-07-28T05:35:28;5.10;;;2.05;;
45694;SDS011;31408;45.468;9.124;2023-07-28T05:37:54;5.28;;;2.20;;
45694;SDS011;31408;45.468;9.124;2023-07-28T05:40:20;13.60;;;3.47;;
45694;SDS011;31408;45.468;9.124;2023-07-28T05:42:45;11.68;;;2.67;;
45694;SDS011;31408;45.468;9.124;2023-07-28T05:45:11;7.68;;;2.33;;
45694;SDS011;31408;45.468;9.124;2023-07-28T05:47:36;5.57;;;2.47;;
45694;SDS011;31408;45.468;9.124;2023-07-28T05:50:02;8.00;;;2.53;;
45694;SDS011;31408;45.468;9.124;2023-07-28T05:52:28;7.63;;;2.53;;
45694;SDS011;31408;45.468;9.124;2023-07-28T05:54:53;7.68;;;3.00;;
45694;SDS011;31408;45.468;9.124;2023-07-28T05:57:19;8.85;;;2.65;;
45694;SDS011;31408;45.468;9.124;2023-07-28T05:59:45;6.70;;;2.72;;
45694;SDS011;31408;45.468;9.124;2023-07-28T06:02:11;4.28;;;2.28;;
45694;SDS011;31408;45.468;9.124;2023-07-28T06:05:02;9.52;;;2.50;;
45694;SDS011;31408;45.468;9.124;2023-07-28T06:07:28;4.95;;;2.25;;
45694;SDS011;31408;45.468;9.124;2023-07-28T06:09:54;6.15;;;2.85;;
45694;SDS011;31408;45.468;9.124;2023-07-28T06:12:19;6.35;;;2.33;;
45694;SDS011;31408;45.468;9.124;2023-07-28T06:14:45;8.23;;;2.47;;
45694;SDS011;31408;45.468;9.124;2023-07-28T06:17:11;8.30;;;2.00;;
45694;SDS011;31408;45.468;9.124;2023-07-28T06:19:37;3.63;;;2.10;;
45694;SDS011;31408;45.468;9.124;2023-07-28T06:22:02;7.57;;;2.58;;
45694;SDS011;31408;45.468;9.124;2023-07-28T06:24:29;4.63;;;2.03;;
45694;SDS011;31408;45.468;9.124;2023-07-28T06:26:58;9.50;;;3.08;;
45694;SDS011;31408;45.468;9.124;2023-07-28T06:29:23;9.50;;;2.35;;
45694;SDS011;31408;45.468;9.124;2023-07-28T06:31:49;7.97;;;3.42;;
45694;SDS011;31408;45.468;9.124;2023-07-28T06:34:14;7.28;;;2.85;;
45694;SDS011;31408;45.468;9.124;2023-07-28T06:36:40;4.47;;;2.05;;
45694;SDS011;31408;45.468;9.124;2023-07-28T06:39:05;7.68;;;2.08;;
45694;SDS011;31408;45.468;9.124;2023-07-28T06:41:30;5.40;;;2.03;;
45694;SDS011;31408;45.468;9.124;2023-07-28T06:43:59;9.32;;;2.67;;
45694;SDS011;31408;45.468;9.124;2023-07-28T06:46:25;2.85;;;1.98;;
45694;SDS011;31408;45.468;9.124;2023-07-28T06:48:50;6.60;;;2.35;;
45694;SDS011;31408;45.468;9.124;2023-07-28T06:51:16;3.95;;;1.90;;
45694;SDS011;31408;45.468;9.124;2023-07-28T06:53:41;8.18;;;2.78;;
45694;SDS011;31408;45.468;9.124;2023-07-28T06:56:07;11.93;;;3.08;;
45694;SDS011;31408;45.468;9.124;2023-07-28T06:58:32;5.90;;;2.13;;
45694;SDS011;31408;45.468;9.124;2023-07-28T07:00:57;7.15;;;2.17;;
45694;SDS011;31408;45.468;9.124;2023-07-28T07:03:23;5.55;;;1.77;;
45694;SDS011;31408;45.468;9.124;2023-07-28T07:05:49;2.83;;;1.58;;
45694;SDS011;31408;45.468;9.124;2023-07-28T07:08:14;11.02;;;3.72;;
45694;SDS011;31408;45.468;9.124;2023-07-28T07:10:40;7.50;;;2.38;;
45694;SDS011;31408;45.468;9.124;2023-07-28T07:13:12;5.87;;;2.60;;
45694;SDS011;31408;45.468;9.124;2023-07-28T07:15:38;6.57;;;2.60;;
45694;SDS011;31408;45.468;9.124;2023-07-28T07:18:03;10.90;;;2.30;;
45694;SDS011;31408;45.468;9.124;2023-07-28T07:20:28;8.63;;;2.67;;
45694;SDS011;31408;45.468;9.124;2023-07-28T07:22:54;5.30;;;2.30;;
45694;SDS011;31408;45.468;9.124;2023-07-28T07:25:19;6.88;;;1.98;;
45694;SDS011;31408;45.468;9.124;2023-07-28T07:27:45;4.07;;;1.75;;
45694;SDS011;31408;45.468;9.124;2023-07-28T07:30:13;8.52;;;2.08;;
45694;SDS011;31408;45.468;9.124;2023-07-28T07:32:38;3.40;;;1.83;;
45694;SDS011;31408;45.468;9.124;2023-07-28T07:35:04;8.20;;;1.92;;
45694;SDS011;31408;45.468;9.124;2023-07-28T07:37:30;4.65;;;1.95;;
45694;SDS011;31408;45.468;9.124;2023-07-28T07:39:57;9.50;;;2.40;;
45694;SDS011;31408;45.468;9.124;2023-07-28T07:42:23;7.80;;;1.60;;
45694;SDS011;31408;45.468;9.124;2023-07-28T07:44:48;5.97;;;1.90;;
45694;SDS011;31408;45.468;9.124;2023-07-28T07:47:14;6.72;;;1.67;;
45694;SDS011;31408;45.468;9.124;2023-07-28T07:49:41;4.53;;;1.60;;
45694;SDS011;31408;45.468;9.124;2023-07-28T07:52:07;3.67;;;1.70;;
45694;SDS011;31408;45.468;9.124;2023-07-28T07:54:34;5.15;;;1.73;;
45694;SDS011;31408;45.468;9.124;2023-07-28T07:56:59;2.85;;;1.52;;
45694;SDS011;31408;45.468;9.124;2023-07-28T07:59:25;6.90;;;1.85;;
45694;SDS011;31408;45.468;9.124;2023-07-28T08:01:53;8.40;;;2.00;;
45694;SDS011;31408;45.468;9.124;2023-07-28T08:04:19;3.60;;;1.20;;
45694;SDS011;31408;45.468;9.124;2023-07-28T08:06:44;4.57;;;1.50;;
45694;SDS011;31408;45.468;9.124;2023-07-28T08:09:10;6.18;;;2.15;;
45694;SDS011;31408;45.468;9.124;2023-07-28T08:11:35;5.00;;;1.73;;
45694;SDS011;31408;45.468;9.124;2023-07-28T08:14:00;12.05;;;1.73;;
45694;SDS011;31408;45.468;9.124;2023-07-28T08:16:26;4.38;;;1.65;;
45694;SDS011;31408;45.468;9.124;2023-07-28T08:18:51;2.83;;;1.42;;
45694;SDS011;31408;45.468;9.124;2023-07-28T08:21:17;7.07;;;2.55;;
45694;SDS011;31408;45.468;9.124;2023-07-28T08:23:42;5.00;;;1.60;;
45694;SDS011;31408;45.468;9.124;2023-07-28T08:26:08;4.45;;;1.70;;
45694;SDS011;31408;45.468;9.124;2023-07-28T08:28:33;4.90;;;2.10;;
45694;SDS011;31408;45.468;9.124;2023-07-28T08:30:59;5.80;;;1.63;;
45694;SDS011;31408;45.468;9.124;2023-07-28T08:33:24;5.65;;;2.38;;
45694;SDS011;31408;45.468;9.124;2023-07-28T08:35:52;4.63;;;1.55;;
45694;SDS011;31408;45.468;9.124;2023-07-28T08:38:18;3.92;;;1.63;;
45694;SDS011;31408;45.468;9.124;2023-07-28T08:40:44;10.65;;;2.03;;
45694;SDS011;31408;45.468;9.124;2023-07-28T08:43:10;3.80;;;1.95;;
45694;SDS011;31408;45.468;9.124;2023-07-28T08:45:36;4.18;;;1.80;;
45694;SDS011;31408;45.468;9.124;2023-07-28T08:48:01;11.13;;;2.35;;
45694;SDS011;31408;45.468;9.124;2023-07-28T08:50:27;12.65;;;2.72;;
45694;SDS011;31408;45.468;9.124;2023-07-28T08:52:52;6.07;;;2.50;;
45694;SDS011;31408;45.468;9.124;2023-07-28T08:55:19;4.15;;;1.90;;
45694;SDS011;31408;45.468;9.124;2023-07-28T08:57:45;5.95;;;1.60;;
45694;SDS011;31408;45.468;9.124;2023-07-28T09:00:10;5.63;;;1.95;;
45694;SDS011;31408;45.468;9.124;2023-07-28T09:02:38;5.85;;;2.22;;
45694;SDS011;31408;45.468;9.124;2023-07-28T09:05:04;4.50;;;2.10;;
45694;SDS011;31408;45.468;9.124;2023-07-28T09:07:35;8.23;;;1.83;;
45694;SDS011;31408;45.468;9.124;2023-07-28T09:10:02;4.15;;;1.52;;
45694;SDS011;31408;45.468;9.124;2023-07-28T09:12:30;4.93;;;1.92;;
45694;SDS011;31408;45.468;9.124;2023-07-28T09:14:57;4.90;;;1.65;;
45694;SDS011;31408;45.468;9.124;2023-07-28T09:17:22;2.40;;;1.52;;
45694;SDS011;31408;45.468;9.124;2023-07-28T09:19:54;4.82;;;1.55;;
45694;SDS011;31408;45.468;9.124;2023-07-28T09:22:21;4.97;;;1.88;;
45694;SDS011;31408;45.468;9.124;2023-07-28T09:24:47;5.05;;;1.80;;
45694;SDS011;31408;45.468;9.124;2023-07-28T09:27:24;6.40;;;1.48;;
45694;SDS011;31408;45.468;9.124;2023-07-28T09:29:51;3.53;;;1.95;;
45694;SDS011;31408;45.468;9.124;2023-07-28T09:32:30;7.20;;;1.58;;
45694;SDS011;31408;45.468;9.124;2023-07-28T09:35:11;7.13;;;1.90;;
45694;SDS011;31408;45.468;9.124;2023-07-28T09:37:38;5.82;;;2.08;;
45694;SDS011;31408;45.468;9.124;2023-07-28T09:40:12;3.00;;;1.33;;
45694;SDS011;31408;45.468;9.124;2023-07-28T09:42:39;11.57;;;2.22;;
45694;SDS011;31408;45.468;9.124;2023-07-28T09:45:05;5.32;;;1.60;;
45694;SDS011;31408;45.468;9.124;2023-07-28T09:47:32;3.33;;;1.52;;
45694;SDS011;31408;45.468;9.124;2023-07-28T09:50:01;2.83;;;1.60;;
45694;SDS011;31408;45.468;9.124;2023-07-28T09:52:29;3.08;;;1.42;;
45694;SDS011;31408;45.468;9.124;2023-07-28T09:54:59;3.58;;;1.95;;
45694;SDS011;31408;45.468;9.124;2023-07-28T09:57:25;6.47;;;2.03;;
45694;SDS011;31408;45.468;9.124;2023-07-28T09:59:53;5.15;;;1.70;;
45694;SDS011;31408;45.468;9.124;2023-07-28T10:02:19;2.13;;;0.95;;
45694;SDS011;31408;45.468;9.124;2023-07-28T10:04:45;2.65;;;1.42;;
45694;SDS011;31408;45.468;9.124;2023-07-28T10:07:11;3.78;;;1.30;;
45694;SDS011;31408;45.468;9.124;2023-07-28T10:09:37;6.55;;;1.50;;
45694;SDS011;31408;45.468;9.124;2023-07-28T10:12:03;6.13;;;1.65;;
45694;SDS011;31408;45.468;9.124;2023-07-28T10:14:30;1.88;;;0.88;;
45694;SDS011;31408;45.468;9.124;2023-07-28T10:17:00;3.30;;;1.50;;
45694;SDS011;31408;45.468;9.124;2023-07-28T10:19:29;4.65;;;1.52;;
45694;SDS011;31408;45.468;9.124;2023-07-28T10:21:59;5.03;;;1.50;;
45694;SDS011;31408;45.468;9.124;2023-07-28T10:29:56;5.38;;;1.67;;
45694;SDS011;31408;45.468;9.124;2023-07-28T10:32:25;3.80;;;1.52;;
45694;SDS011;31408;45.468;9.124;2023-07-28T10:37:37;4.82;;;1.65;;
45694;SDS011;31408;45.468;9.124;2023-07-28T10:42:53;6.10;;;1.40;;
45694;SDS011;31408;45.468;9.124;2023-07-28T10:45:20;2.60;;;1.50;;
45694;SDS011;31408;45.468;9.124;2023-07-28T10:47:49;5.35;;;1.80;;
45694;SDS011;31408;45.468;9.124;2023-07-28T10:50:14;7.50;;;2.10;;
45694;SDS011;31408;45.468;9.124;2023-07-28T10:52:41;6.40;;;1.92;;
45694;SDS011;31408;45.468;9.124;2023-07-28T10:55:17;2.50;;;1.33;;
45694;SDS011;31408;45.468;9.124;2023-07-28T10:57:45;6.78;;;1.60;;
45694;SDS011;31408;45.468;9.124;2023-07-28T11:00:12;6.53;;;1.70;;
45694;SDS011;31408;45.468;9.124;2023-07-28T11:02:43;4.05;;;1.52;;
45694;SDS011;31408;45.468;9.124;2023-07-28T11:05:10;3.60;;;1.10;;
45694;SDS011;31408;45.468;9.124;2023-07-28T11:07:38;3.33;;;1.38;;
45694;SDS011;31408;45.468;9.124;2023-07-28T11:10:09;2.85;;;1.35;;
45694;SDS011;31408;45.468;9.124;2023-07-28T11:12:39;7.15;;;1.58;;
45694;SDS011;31408;45.468;9.124;2023-07-28T11:15:07;9.32;;;1.63;;
45694;SDS011;31408;45.468;9.124;2023-07-28T11:17:36;3.65;;;1.60;;
45694;SDS011;31408;45.468;9.124;2023-07-28T11:20:15;5.72;;;1.48;;
45694;SDS011;31408;45.468;9.124;2023-07-28T11:22:42;2.67;;;1.35;;
45694;SDS011;31408;45.468;9.124;2023-07-28T11:25:08;1.95;;;1.13;;
45694;SDS011;31408;45.468;9.124;2023-07-28T11:27:35;4.63;;;1.20;;
45694;SDS011;31408;45.468;9.124;2023-07-28T11:30:01;4.32;;;1.35;;
45694;SDS011;31408;45.468;9.124;2023-07-28T11:32:28;2.40;;;1.30;;
45694;SDS011;31408;45.468;9.124;2023-07-28T11:35:01;2.78;;;1.55;;
45694;SDS011;31408;45.468;9.124;2023-07-28T11:37:28;3.33;;;1.38;;
45694;SDS011;31408;45.468;9.124;2023-07-28T11:39:55;2.53;;;1.52;;
45694;SDS011;31408;45.468;9.124;2023-07-28T11:42:20;5.70;;;1.67;;
45694;SDS011;31408;45.468;9.124;2023-07-28T11:44:46;5.25;;;1.45;;
45694;SDS011;31408;45.468;9.124;2023-07-28T11:47:16;3.42;;;1.63;;
45694;SDS011;31408;45.468;9.124;2023-07-28T11:49:49;1.58;;;0.93;;
45694;SDS011;31408;45.468;9.124;2023-07-28T11:52:16;5.15;;;0.95;;
45694;SDS011;31408;45.468;9.124;2023-07-28T11:54:41;4.68;;;1.42;;
45694;SDS011;31408;45.468;9.124;2023-07-28T11:57:09;2.78;;;1.38;;
45694;SDS011;31408;45.468;9.124;2023-07-28T11:59:34;9.43;;;1.73;;
45694;SDS011;31408;45.468;9.124;2023-07-28T12:02:01;3.67;;;1.67;;
45694;SDS011;31408;45.468;9.124;2023-07-28T12:04:31;2.75;;;1.67;;
45694;SDS011;31408;45.468;9.124;2023-07-28T12:07:10;5.35;;;1.80;;
45694;SDS011;31408;45.468;9.124;2023-07-28T12:12:17;2.72;;;1.65;;
45694;SDS011;31408;45.468;9.124;2023-07-28T12:14:47;3.22;;;1.77;;
45694;SDS011;31408;45.468;9.124;2023-07-28T12:17:16;4.88;;;1.38;;
45694;SDS011;31408;45.468;9.124;2023-07-28T12:22:27;5.75;;;1.85;;
45694;SDS011;31408;45.468;9.124;2023-07-28T12:24:53;5.25;;;1.42;;
45694;SDS011;31408;45.468;9.124;2023-07-28T12:27:19;3.70;;;1.52;;
45694;SDS011;31408;45.468;9.124;2023-07-28T12:29:50;3.10;;;1.60;;
45694;SDS011;31408;45.468;9.124;2023-07-28T12:32:16;8.38;;;1.67;;
45694;SDS011;31408;45.468;9.124;2023-07-28T12:34:41;6.22;;;1.55;;
45694;SDS011;31408;45.468;9.124;2023-07-28T12:37:07;2.40;;;1.35;;
45694;SDS011;31408;45.468;9.124;2023-07-28T12:39:33;4.10;;;1.23;;
45694;SDS011;31408;45.468;9.124;2023-07-28T12:42:01;7.93;;;1.88;;
45694;SDS011;31408;45.468;9.124;2023-07-28T12:44:27;6.38;;;1.30;;
45694;SDS011;31408;45.468;9.124;2023-07-28T12:46:52;8.93;;;2.25;;
45694;SDS011;31408;45.468;9.124;2023-07-28T12:49:18;3.42;;;1.40;;
45694;SDS011;31408;45.468;9.124;2023-07-28T12:51:44;4.90;;;1.83;;
45694;SDS011;31408;45.468;9.124;2023-07-28T12:54:10;6.82;;;1.80;;
45694;SDS011;31408;45.468;9.124;2023-07-28T12:56:35;4.45;;;1.42;;
45694;SDS011;31408;45.468;9.124;2023-07-28T12:59:01;4.93;;;1.52;;
45694;SDS011;31408;45.468;9.124;2023-07-28T13:01:26;8.45;;;1.40;;
45694;SDS011;31408;45.468;9.124;2023-07-28T13:03:52;5.15;;;1.40;;
45694;SDS011;31408;45.468;9.124;2023-07-28T13:06:18;5.93;;;1.33;;
45694;SDS011;31408;45.468;9.124;2023-07-28T13:08:44;4.13;;;1.52;;
45694;SDS011;31408;45.468;9.124;2023-07-28T13:11:10;9.48;;;1.75;;
45694;SDS011;31408;45.468;9.124;2023-07-28T13:13:35;2.85;;;1.83;;
45694;SDS011;31408;45.468;9.124;2023-07-28T13:16:00;6.22;;;1.80;;
45694;SDS011;31408;45.468;9.124;2023-07-28T13:18:26;4.60;;;1.40;;
45694;SDS011;31408;45.468;9.124;2023-07-28T13:20:51;3.17;;;1.17;;
45694;SDS011;31408;45.468;9.124;2023-07-28T13:23:17;3.33;;;1.40;;
45694;SDS011;31408;45.468;9.124;2023-07-28T13:25:42;4.00;;;1.80;;
45694;SDS011;31408;45.468;9.124;2023-07-28T13:28:08;5.93;;;1.70;;
45694;SDS011;31408;45.468;9.124;2023-07-28T13:30:33;7.25;;;2.05;;
45694;SDS011;31408;45.468;9.124;2023-07-28T13:32:59;4.05;;;1.65;;
45694;SDS011;31408;45.468;9.124;2023-07-28T13:35:25;4.88;;;1.30;;
45694;SDS011;31408;45.468;9.124;2023-07-28T13:37:51;3.17;;;2.10;;
45694;SDS011;31408;45.468;9.124;2023-07-28T13:40:16;4.53;;;1.50;;
45694;SDS011;31408;45.468;9.124;2023-07-28T13:42:42;2.10;;;1.15;;
45694;SDS011;31408;45.468;9.124;2023-07-28T13:45:08;3.35;;;1.33;;
45694;SDS011;31408;45.468;9.124;2023-07-28T13:47:34;4.13;;;1.50;;
45694;SDS011;31408;45.468;9.124;2023-07-28T13:49:59;2.35;;;1.58;;
45694;SDS011;31408;45.468;9.124;2023-07-28T13:52:25;1.98;;;1.25;;
45694;SDS011;31408;45.468;9.124;2023-07-28T13:54:50;3.55;;;1.80;;
45694;SDS011;31408;45.468;9.124;2023-07-28T13:57:16;4.13;;;2.00;;
45694;SDS011;31408;45.468;9.124;2023-07-28T13:59:41;6.13;;;1.65;;
45694;SDS011;31408;45.468;9.124;2023-07-28T14:02:06;9.93;;;1.67;;
45694;SDS011;31408;45.468;9.124;2023-07-28T14:04:33;3.80;;;1.63;;
45694;SDS011;31408;45.468;9.124;2023-07-28T14:06:59;2.35;;;1.45;;
45694;SDS011;31408;45.468;9.124;2023-07-28T14:09:24;5.55;;;1.80;;
45694;SDS011;31408;45.468;9.124;2023-07-28T14:11:50;4.07;;;1.48;;
45694;SDS011;31408;45.468;9.124;2023-07-28T14:14:15;5.60;;;1.90;;
45694;SDS011;31408;45.468;9.124;2023-07-28T14:16:41;2.17;;;1.45;;
45694;SDS011;31408;45.468;9.124;2023-07-28T14:19:07;5.80;;;2.03;;
45694;SDS011;31408;45.468;9.124;2023-07-28T14:21:33;6.55;;;2.20;;
45694;SDS011;31408;45.468;9.124;2023-07-28T14:23:58;4.05;;;1.63;;
45694;SDS011;31408;45.468;9.124;2023-07-28T14:26:24;3.58;;;1.65;;
45694;SDS011;31408;45.468;9.124;2023-07-28T14:28:49;4.65;;;1.80;;
45694;SDS011;31408;45.468;9.124;2023-07-28T14:31:15;3.95;;;1.83;;
45694;SDS011;31408;45.468;9.124;2023-07-28T14:33:40;4.00;;;1.90;;
45694;SDS011;31408;45.468;9.124;2023-07-28T14:36:06;3.55;;;1.60;;
45694;SDS011;31408;45.468;9.124;2023-07-28T14:38:31;2.88;;;1.73;;
45694;SDS011;31408;45.468;9.124;2023-07-28T14:40:57;6.93;;;1.92;;
45694;SDS011;31408;45.468;9.124;2023-07-28T14:43:22;2.65;;;1.60;;
45694;SDS011;31408;45.468;9.124;2023-07-28T14:45:49;3.95;;;1.58;;
45694;SDS011;31408;45.468;9.124;2023-07-28T14:48:16;3.28;;;1.83;;
45694;SDS011;31408;45.468;9.124;2023-07-28T14:50:41;4.18;;;1.38;;
45694;SDS011;31408;45.468;9.124;2023-07-28T14:55:54;3.67;;;1.88;;
45694;SDS011;31408;45.468;9.124;2023-07-28T14:58:20;4.72;;;1.85;;
45694;SDS011;31408;45.468;9.124;2023-07-28T15:00:46;3.03;;;1.58;;
45694;SDS011;31408;45.468;9.124;2023-07-28T15:03:11;1.75;;;1.58;;
45694;SDS011;31408;45.468;9.124;2023-07-28T15:05:37;11.65;;;2.38;;
45694;SDS011;31408;45.468;9.124;2023-07-28T15:08:02;5.32;;;1.77;;
45694;SDS011;31408;45.468;9.124;2023-07-28T15:10:28;4.18;;;1.83;;
45694;SDS011;31408;45.468;9.124;2023-07-28T15:12:53;5.10;;;1.88;;